GCR1302 ZBAD-ZBTJ
Flight info
| Callsign | GCR1302 |
|---|---|
| Flight time | 0h 45m |
| Altitude | 19700 |
| Route | MUGLO4K MUGLO DCT IGMOR DUMAP7K |
| Aircraft | A21N/M-SDE2E3FGHIRWXY/LB1 |
Departure
| Time | 2026-04-18 09:05 |
|---|---|
| Airport | Beijing Daxing International Airport (ZBAD) |
Arrival
| Time | 2026-04-18 09:50 |
|---|---|
| Airport | Tianjin Binhai International Airport (ZBTJ) |
| Time | Latitude | Longitude | Altitude | Speed | Heading |
|---|---|---|---|---|---|
| 2026-04-18 08:40 | 39.50757 | 116.41775 | 90 ft | 0 kts | 293° |
| 2026-04-18 08:54 | 39.50754 | 116.41786 | 90 ft | 2 kts | 293° |
| 2026-04-18 08:54 | 39.50748 | 116.41804 | 90 ft | 2 kts | 293° |
| 2026-04-18 08:55 | 39.50742 | 116.41822 | 90 ft | 2 kts | 293° |
| 2026-04-18 08:55 | 39.50736 | 116.41840 | 90 ft | 2 kts | 293° |
| 2026-04-18 08:55 | 39.50729 | 116.41858 | 90 ft | 2 kts | 313° |
| 2026-04-18 08:55 | 39.50716 | 116.41870 | 90 ft | 2 kts | 332° |
| 2026-04-18 08:56 | 39.50702 | 116.41877 | 90 ft | 2 kts | 353° |
| 2026-04-18 08:56 | 39.50687 | 116.41876 | 90 ft | 2 kts | 13° |
| 2026-04-18 08:56 | 39.50679 | 116.41873 | 90 ft | 1 kts | 25° |
| 2026-04-18 08:56 | 39.50675 | 116.41871 | 90 ft | 0 kts | 22° |
| 2026-04-18 08:59 | 39.50676 | 116.41871 | 90 ft | 0 kts | 22° |
| 2026-04-18 08:59 | 39.50682 | 116.41875 | 90 ft | 1 kts | 22° |
| 2026-04-18 08:59 | 39.50703 | 116.41886 | 90 ft | 5 kts | 22° |
| 2026-04-18 09:00 | 39.50750 | 116.41912 | 90 ft | 9 kts | 23° |
| 2026-04-18 09:00 | 39.50806 | 116.41974 | 90 ft | 12 kts | 70° |
| 2026-04-18 09:00 | 39.50839 | 116.42084 | 90 ft | 14 kts | 21° |
| 2026-04-18 09:00 | 39.50950 | 116.42079 | 90 ft | 17 kts | 353° |
| 2026-04-18 09:01 | 39.51078 | 116.42068 | 90 ft | 18 kts | 20° |
| 2026-04-18 09:01 | 39.51158 | 116.42185 | 90 ft | 17 kts | 59° |
| 2026-04-18 09:01 | 39.51180 | 116.42334 | 90 ft | 16 kts | 84° |
| 2026-04-18 09:01 | 39.51190 | 116.42486 | 90 ft | 16 kts | 81° |
| 2026-04-18 09:02 | 39.51223 | 116.42626 | 90 ft | 14 kts | 33° |
| 2026-04-18 09:02 | 39.51319 | 116.42622 | 90 ft | 13 kts | 358° |
| 2026-04-18 09:02 | 39.51374 | 116.42696 | 90 ft | 13 kts | 83° |
| 2026-04-18 09:02 | 39.51384 | 116.42819 | 90 ft | 13 kts | 83° |
| 2026-04-18 09:03 | 39.51397 | 116.42946 | 90 ft | 14 kts | 80° |
| 2026-04-18 09:03 | 39.51431 | 116.43061 | 90 ft | 14 kts | 30° |
| 2026-04-18 09:03 | 39.51527 | 116.43102 | 90 ft | 14 kts | 12° |
| 2026-04-18 09:03 | 39.51622 | 116.43148 | 90 ft | 14 kts | 46° |
| 2026-04-18 09:04 | 39.51639 | 116.43276 | 90 ft | 19 kts | 103° |
| 2026-04-18 09:04 | 39.51548 | 116.43770 | 90 ft | 90 kts | 103° |
| 2026-04-18 09:04 | 39.51360 | 116.44820 | 90 ft | 148 kts | 103° |
| 2026-04-18 09:04 | 39.51107 | 116.46316 | 217 ft | 182 kts | 105° |
| 2026-04-18 09:05 | 39.50826 | 116.47928 | 704 ft | 184 kts | 107° |
| 2026-04-18 09:05 | 39.50534 | 116.49548 | 1313 ft | 183 kts | 108° |
| 2026-04-18 09:05 | 39.50244 | 116.51149 | 1891 ft | 184 kts | 109° |
| 2026-04-18 09:05 | 39.49934 | 116.52821 | 2266 ft | 199 kts | 109° |
| 2026-04-18 09:06 | 39.49598 | 116.54639 | 2628 ft | 216 kts | 109° |
| 2026-04-18 09:06 | 39.49237 | 116.56612 | 2985 ft | 235 kts | 108° |
| 2026-04-18 09:06 | 39.48844 | 116.58776 | 3458 ft | 251 kts | 108° |
| 2026-04-18 09:06 | 39.48448 | 116.61001 | 4199 ft | 252 kts | 108° |
| 2026-04-18 09:07 | 39.48053 | 116.63223 | 4677 ft | 254 kts | 107° |
| 2026-04-18 09:07 | 39.47686 | 116.65534 | 4915 ft | 270 kts | 106° |
| 2026-04-18 09:07 | 39.47326 | 116.67967 | 4918 ft | 275 kts | 105° |
| 2026-04-18 09:07 | 39.46967 | 116.70429 | 4921 ft | 276 kts | 105° |
| 2026-04-18 09:08 | 39.46604 | 116.72903 | 4918 ft | 276 kts | 105° |
| 2026-04-18 09:08 | 39.46236 | 116.75326 | 4922 ft | 275 kts | 109° |
| 2026-04-18 09:08 | 39.45394 | 116.77483 | 4905 ft | 264 kts | 139° |
| 2026-04-18 09:08 | 39.43866 | 116.78751 | 5125 ft | 264 kts | 163° |
| 2026-04-18 09:09 | 39.42134 | 116.79555 | 6047 ft | 264 kts | 162° |
| 2026-04-18 09:09 | 39.40427 | 116.80406 | 6995 ft | 264 kts | 162° |
| 2026-04-18 09:09 | 39.38707 | 116.81278 | 7823 ft | 267 kts | 162° |
| 2026-04-18 09:09 | 39.36984 | 116.82153 | 8612 ft | 271 kts | 162° |
| 2026-04-18 09:10 | 39.35202 | 116.83058 | 9406 ft | 275 kts | 162° |
| 2026-04-18 09:10 | 39.33416 | 116.83963 | 10153 ft | 279 kts | 162° |
| 2026-04-18 09:10 | 39.31580 | 116.84890 | 10680 ft | 292 kts | 162° |
| 2026-04-18 09:10 | 39.29604 | 116.85886 | 11057 ft | 310 kts | 162° |
| 2026-04-18 09:11 | 39.27522 | 116.86935 | 11396 ft | 328 kts | 162° |
| 2026-04-18 09:11 | 39.25320 | 116.88047 | 11708 ft | 346 kts | 161° |
| 2026-04-18 09:11 | 39.23014 | 116.89211 | 12001 ft | 363 kts | 161° |
| 2026-04-18 09:11 | 39.20589 | 116.90436 | 12283 ft | 380 kts | 161° |
| 2026-04-18 09:12 | 39.18064 | 116.91714 | 12599 ft | 394 kts | 160° |
| 2026-04-18 09:12 | 39.15633 | 116.93439 | 13079 ft | 406 kts | 143° |
| 2026-04-18 09:12 | 39.13713 | 116.96188 | 13693 ft | 416 kts | 124° |
| 2026-04-18 09:12 | 39.12579 | 116.99636 | 14308 ft | 423 kts | 104° |
| 2026-04-18 09:13 | 39.12257 | 117.03402 | 14956 ft | 426 kts | 94° |
| 2026-04-18 09:13 | 39.12111 | 117.07286 | 15538 ft | 431 kts | 93° |
| 2026-04-18 09:13 | 39.11966 | 117.11149 | 15953 ft | 439 kts | 94° |
| 2026-04-18 09:13 | 39.11793 | 117.15140 | 16447 ft | 444 kts | 94° |
| 2026-04-18 09:14 | 39.11601 | 117.19151 | 17046 ft | 446 kts | 94° |
| 2026-04-18 09:14 | 39.11399 | 117.23157 | 17582 ft | 449 kts | 94° |
| 2026-04-18 09:14 | 39.11193 | 117.27159 | 18077 ft | 452 kts | 94° |
| 2026-04-18 09:14 | 39.10981 | 117.31221 | 18585 ft | 455 kts | 94° |
| 2026-04-18 09:15 | 39.10766 | 117.35319 | 19088 ft | 458 kts | 94° |
| 2026-04-18 09:15 | 39.10547 | 117.39465 | 19480 ft | 462 kts | 94° |
| 2026-04-18 09:15 | 39.10326 | 117.43621 | 19556 ft | 462 kts | 94° |
| 2026-04-18 09:15 | 39.10106 | 117.47749 | 19560 ft | 462 kts | 94° |
| 2026-04-18 09:16 | 39.09884 | 117.51901 | 19561 ft | 462 kts | 94° |
| 2026-04-18 09:16 | 39.09661 | 117.56036 | 19589 ft | 461 kts | 94° |
| 2026-04-18 09:16 | 39.09434 | 117.60201 | 19592 ft | 462 kts | 94° |
| 2026-04-18 09:16 | 39.09207 | 117.64341 | 19599 ft | 462 kts | 94° |
| 2026-04-18 09:17 | 39.08979 | 117.68462 | 19494 ft | 461 kts | 95° |
| 2026-04-18 09:17 | 39.08749 | 117.72620 | 19292 ft | 459 kts | 95° |
| 2026-04-18 09:17 | 39.08526 | 117.76676 | 19060 ft | 458 kts | 95° |
| 2026-04-18 09:17 | 39.08299 | 117.80817 | 18828 ft | 456 kts | 95° |
| 2026-04-18 09:18 | 39.08075 | 117.84865 | 18585 ft | 454 kts | 95° |
| 2026-04-18 09:18 | 39.07848 | 117.88923 | 18305 ft | 452 kts | 95° |
| 2026-04-18 09:18 | 39.07618 | 117.92954 | 18075 ft | 450 kts | 96° |
| 2026-04-18 09:18 | 39.06976 | 117.96855 | 17844 ft | 445 kts | 114° |
| 2026-04-18 09:19 | 39.05339 | 118.00163 | 17625 ft | 438 kts | 135° |
| 2026-04-18 09:19 | 39.02942 | 118.02457 | 17178 ft | 418 kts | 156° |
| 2026-04-18 09:19 | 39.00243 | 118.03544 | 16028 ft | 407 kts | 174° |
| 2026-04-18 09:19 | 38.97442 | 118.03594 | 14433 ft | 406 kts | 184° |
| 2026-04-18 09:20 | 38.94646 | 118.03443 | 12911 ft | 402 kts | 183° |
| 2026-04-18 09:20 | 38.91898 | 118.03332 | 11622 ft | 392 kts | 182° |
| 2026-04-18 09:20 | 38.89212 | 118.03265 | 10387 ft | 379 kts | 182° |
| 2026-04-18 09:20 | 38.86639 | 118.03226 | 9405 ft | 362 kts | 182° |
| 2026-04-18 09:21 | 38.84425 | 118.03200 | 8729 ft | 343 kts | 182° |
| 2026-04-18 09:21 | 38.82060 | 118.03175 | 8159 ft | 332 kts | 182° |
| 2026-04-18 09:21 | 38.79783 | 118.03150 | 7935 ft | 316 kts | 181° |
| 2026-04-18 09:21 | 38.77641 | 118.03128 | 7940 ft | 297 kts | 182° |
| 2026-04-18 09:22 | 38.75625 | 118.03108 | 7949 ft | 279 kts | 182° |
| 2026-04-18 09:22 | 38.73724 | 118.03088 | 7946 ft | 265 kts | 182° |
| 2026-04-18 09:22 | 38.71858 | 118.03067 | 7962 ft | 264 kts | 182° |
| 2026-04-18 09:22 | 38.70026 | 118.03046 | 7958 ft | 265 kts | 182° |
| 2026-04-18 09:23 | 38.68173 | 118.03026 | 7942 ft | 264 kts | 182° |
| 2026-04-18 09:23 | 38.66317 | 118.02995 | 7928 ft | 264 kts | 185° |
| 2026-04-18 09:23 | 38.64509 | 118.02574 | 7919 ft | 259 kts | 199° |
| 2026-04-18 09:23 | 38.62915 | 118.01650 | 7938 ft | 243 kts | 211° |
| 2026-04-18 09:24 | 38.61611 | 118.00388 | 7956 ft | 230 kts | 222° |
| 2026-04-18 09:24 | 38.60550 | 117.98810 | 7940 ft | 231 kts | 233° |
| 2026-04-18 09:24 | 38.59774 | 117.96999 | 7826 ft | 234 kts | 245° |
| 2026-04-18 09:24 | 38.59309 | 117.94997 | 7698 ft | 237 kts | 257° |
| 2026-04-18 09:25 | 38.59187 | 117.92879 | 7572 ft | 240 kts | 268° |
| 2026-04-18 09:25 | 38.59434 | 117.90722 | 7447 ft | 243 kts | 281° |
| 2026-04-18 09:25 | 38.60038 | 117.88707 | 7340 ft | 247 kts | 294° |
| 2026-04-18 09:25 | 38.61003 | 117.86858 | 7193 ft | 251 kts | 307° |
| 2026-04-18 09:26 | 38.62284 | 117.85316 | 7069 ft | 254 kts | 320° |
| 2026-04-18 09:26 | 38.63839 | 117.84166 | 6984 ft | 258 kts | 334° |
| 2026-04-18 09:26 | 38.65583 | 117.83504 | 6868 ft | 261 kts | 349° |
| 2026-04-18 09:26 | 38.67405 | 117.83382 | 6732 ft | 262 kts | 4° |
| 2026-04-18 09:27 | 38.69222 | 117.83824 | 6649 ft | 263 kts | 18° |
| 2026-04-18 09:27 | 38.70880 | 117.84791 | 6528 ft | 262 kts | 33° |
| 2026-04-18 09:27 | 38.72322 | 117.86243 | 6401 ft | 261 kts | 48° |
| 2026-04-18 09:27 | 38.73443 | 117.88069 | 6243 ft | 258 kts | 62° |
| 2026-04-18 09:28 | 38.74435 | 117.90021 | 6126 ft | 259 kts | 50° |
| 2026-04-18 09:28 | 38.75798 | 117.91535 | 6023 ft | 261 kts | 33° |
| 2026-04-18 09:28 | 38.77414 | 117.92600 | 5914 ft | 261 kts | 20° |
| 2026-04-18 09:28 | 38.79168 | 117.93209 | 5915 ft | 260 kts | 7° |
| 2026-04-18 09:29 | 38.80992 | 117.93356 | 5911 ft | 259 kts | 354° |
| 2026-04-18 09:29 | 38.82769 | 117.93034 | 5671 ft | 254 kts | 342° |
| 2026-04-18 09:29 | 38.84441 | 117.92357 | 5404 ft | 248 kts | 337° |
| 2026-04-18 09:29 | 38.86053 | 117.91608 | 5200 ft | 243 kts | 336° |
| 2026-04-18 09:30 | 38.87642 | 117.90868 | 4981 ft | 239 kts | 336° |
| 2026-04-18 09:30 | 38.89215 | 117.90150 | 4742 ft | 235 kts | 336° |
| 2026-04-18 09:30 | 38.90737 | 117.89465 | 4507 ft | 231 kts | 337° |
| 2026-04-18 09:30 | 38.92265 | 117.88785 | 4269 ft | 228 kts | 337° |
| 2026-04-18 09:31 | 38.93769 | 117.88117 | 4067 ft | 228 kts | 337° |
| 2026-04-18 09:31 | 38.95282 | 117.87448 | 3849 ft | 227 kts | 337° |
| 2026-04-18 09:31 | 38.96785 | 117.86786 | 3622 ft | 224 kts | 337° |
| 2026-04-18 09:31 | 38.98251 | 117.86141 | 3384 ft | 221 kts | 337° |
| 2026-04-18 09:32 | 38.99707 | 117.85497 | 3164 ft | 217 kts | 337° |
| 2026-04-18 09:32 | 39.01131 | 117.84870 | 2998 ft | 211 kts | 337° |
| 2026-04-18 09:32 | 39.02531 | 117.84253 | 2991 ft | 211 kts | 336° |
| 2026-04-18 09:32 | 39.03921 | 117.83637 | 3002 ft | 205 kts | 337° |
| 2026-04-18 09:33 | 39.05267 | 117.83044 | 3056 ft | 202 kts | 336° |
| 2026-04-18 09:33 | 39.06550 | 117.82308 | 3008 ft | 196 kts | 321° |
| 2026-04-18 09:33 | 39.07559 | 117.81168 | 2995 ft | 190 kts | 303° |
| 2026-04-18 09:33 | 39.08235 | 117.79748 | 2975 ft | 184 kts | 285° |
| 2026-04-18 09:34 | 39.08561 | 117.78172 | 2973 ft | 178 kts | 270° |
| 2026-04-18 09:34 | 39.08658 | 117.76581 | 2985 ft | 177 kts | 267° |
| 2026-04-18 09:34 | 39.08723 | 117.74989 | 2974 ft | 177 kts | 266° |
| 2026-04-18 09:34 | 39.08790 | 117.73390 | 2975 ft | 177 kts | 267° |
| 2026-04-18 09:35 | 39.08861 | 117.71813 | 2980 ft | 177 kts | 267° |
| 2026-04-18 09:35 | 39.08940 | 117.70272 | 2979 ft | 159 kts | 267° |
| 2026-04-18 09:35 | 39.09015 | 117.68897 | 2962 ft | 151 kts | 266° |
| 2026-04-18 09:35 | 39.09081 | 117.67546 | 2962 ft | 150 kts | 266° |
| 2026-04-18 09:36 | 39.09150 | 117.66200 | 2970 ft | 150 kts | 266° |
| 2026-04-18 09:36 | 39.09219 | 117.64842 | 2971 ft | 150 kts | 266° |
| 2026-04-18 09:36 | 39.09287 | 117.63492 | 2975 ft | 151 kts | 266° |
| 2026-04-18 09:36 | 39.09356 | 117.62140 | 2967 ft | 150 kts | 266° |
| 2026-04-18 09:37 | 39.09425 | 117.60782 | 2969 ft | 150 kts | 266° |
| 2026-04-18 09:37 | 39.09491 | 117.59440 | 2964 ft | 151 kts | 266° |
| 2026-04-18 09:37 | 39.09560 | 117.58067 | 2957 ft | 151 kts | 266° |
| 2026-04-18 09:37 | 39.09628 | 117.56718 | 2974 ft | 151 kts | 266° |
| 2026-04-18 09:38 | 39.09696 | 117.55364 | 2977 ft | 151 kts | 266° |
| 2026-04-18 09:38 | 39.09764 | 117.54007 | 2969 ft | 151 kts | 266° |
| 2026-04-18 09:38 | 39.09833 | 117.52642 | 2967 ft | 151 kts | 268° |
| 2026-04-18 09:38 | 39.10060 | 117.51321 | 2960 ft | 153 kts | 283° |
| 2026-04-18 09:39 | 39.10589 | 117.50075 | 2967 ft | 160 kts | 299° |
| 2026-04-18 09:39 | 39.11387 | 117.49052 | 2969 ft | 165 kts | 317° |
| 2026-04-18 09:39 | 39.12430 | 117.48344 | 2971 ft | 171 kts | 334° |
| 2026-04-18 09:39 | 39.13589 | 117.47882 | 2975 ft | 172 kts | 340° |
| 2026-04-18 09:40 | 39.14759 | 117.47480 | 2972 ft | 173 kts | 340° |
| 2026-04-18 09:40 | 39.15932 | 117.47075 | 2966 ft | 172 kts | 340° |
| 2026-04-18 09:40 | 39.17097 | 117.46659 | 2970 ft | 172 kts | 340° |
| 2026-04-18 09:40 | 39.18256 | 117.46237 | 2967 ft | 172 kts | 339° |
| 2026-04-18 09:41 | 39.19424 | 117.45789 | 2966 ft | 171 kts | 337° |
| 2026-04-18 09:41 | 39.20562 | 117.45262 | 2971 ft | 170 kts | 333° |
| 2026-04-18 09:41 | 39.21650 | 117.44649 | 2973 ft | 169 kts | 328° |
| 2026-04-18 09:41 | 39.22709 | 117.43967 | 2968 ft | 169 kts | 327° |
| 2026-04-18 09:42 | 39.23768 | 117.43266 | 2969 ft | 169 kts | 327° |
| 2026-04-18 09:42 | 39.24829 | 117.42566 | 2962 ft | 169 kts | 327° |
| 2026-04-18 09:42 | 39.25891 | 117.41871 | 2946 ft | 169 kts | 327° |
| 2026-04-18 09:42 | 39.26948 | 117.41179 | 2738 ft | 169 kts | 327° |
| 2026-04-18 09:43 | 39.27996 | 117.40495 | 2497 ft | 168 kts | 327° |
| 2026-04-18 09:43 | 39.28981 | 117.39686 | 2243 ft | 160 kts | 306° |
| 2026-04-18 09:43 | 39.29541 | 117.38500 | 2004 ft | 150 kts | 279° |
| 2026-04-18 09:43 | 39.29629 | 117.37220 | 1870 ft | 140 kts | 255° |
| 2026-04-18 09:44 | 39.29405 | 117.35992 | 1877 ft | 138 kts | 248° |
| 2026-04-18 09:44 | 39.29143 | 117.34781 | 1864 ft | 139 kts | 247° |
| 2026-04-18 09:44 | 39.28884 | 117.33569 | 1866 ft | 139 kts | 248° |
| 2026-04-18 09:44 | 39.28630 | 117.32364 | 1858 ft | 139 kts | 248° |
| 2026-04-18 09:45 | 39.28377 | 117.31136 | 1857 ft | 139 kts | 248° |
| 2026-04-18 09:45 | 39.28128 | 117.29920 | 1861 ft | 138 kts | 246° |
| 2026-04-18 09:45 | 39.27572 | 117.28989 | 1841 ft | 131 kts | 201° |
| 2026-04-18 09:45 | 39.26659 | 117.28947 | 1869 ft | 134 kts | 172° |
| 2026-04-18 09:46 | 39.25752 | 117.29293 | 1865 ft | 135 kts | 165° |
| 2026-04-18 09:46 | 39.24869 | 117.29748 | 1864 ft | 136 kts | 162° |
| 2026-04-18 09:46 | 39.23986 | 117.30254 | 1860 ft | 136 kts | 160° |
| 2026-04-18 09:46 | 39.23123 | 117.30769 | 1853 ft | 136 kts | 160° |
| 2026-04-18 09:47 | 39.22250 | 117.31301 | 1686 ft | 136 kts | 160° |
| 2026-04-18 09:47 | 39.21394 | 117.31827 | 1515 ft | 137 kts | 160° |
| 2026-04-18 09:47 | 39.20528 | 117.32359 | 1339 ft | 137 kts | 160° |
| 2026-04-18 09:47 | 39.19645 | 117.32899 | 1169 ft | 138 kts | 159° |
| 2026-04-18 09:48 | 39.18776 | 117.33430 | 1000 ft | 137 kts | 159° |
| 2026-04-18 09:48 | 39.17904 | 117.33963 | 826 ft | 139 kts | 158° |
| 2026-04-18 09:48 | 39.17032 | 117.34500 | 642 ft | 137 kts | 158° |
| 2026-04-18 09:48 | 39.16150 | 117.35040 | 461 ft | 141 kts | 159° |
| 2026-04-18 09:49 | 39.15261 | 117.35586 | 286 ft | 138 kts | 158° |
| 2026-04-18 09:49 | 39.14370 | 117.36131 | 105 ft | 139 kts | 155° |
| 2026-04-18 09:49 | 39.13513 | 117.36639 | 18 ft | 116 kts | 153° |
| 2026-04-18 09:49 | 39.12987 | 117.36965 | 18 ft | 56 kts | 156° |
| 2026-04-18 09:50 | 39.12664 | 117.37154 | 18 ft | 48 kts | 155° |
| 2026-04-18 09:50 | 39.12417 | 117.37247 | 18 ft | 13 kts | 179° |
| 2026-04-18 09:50 | 39.12361 | 117.37249 | 18 ft | 0 kts | 179° |
| 2026-04-18 09:50 | 39.12359 | 117.37249 | 18 ft | 0 kts | 179° |
| 2026-04-18 09:51 | 39.12356 | 117.37249 | 18 ft | 0 kts | 180° |
| 2026-04-18 09:51 | 39.12355 | 117.37249 | 18 ft | 0 kts | 180° |
| 2026-04-18 09:52 | 39.12320 | 117.37247 | 18 ft | 6 kts | 192° |
| 2026-04-18 09:52 | 39.12289 | 117.37204 | 18 ft | 7 kts | 263° |
| 2026-04-18 09:52 | 39.12323 | 117.37144 | 18 ft | 9 kts | 332° |
| 2026-04-18 09:52 | 39.12390 | 117.37099 | 18 ft | 12 kts | 333° |
| 2026-04-18 09:53 | 39.12472 | 117.37047 | 18 ft | 13 kts | 333° |
| 2026-04-18 09:53 | 39.12564 | 117.36988 | 18 ft | 15 kts | 333° |
| 2026-04-18 09:53 | 39.12666 | 117.36926 | 18 ft | 16 kts | 334° |
| 2026-04-18 09:53 | 39.12711 | 117.36824 | 18 ft | 14 kts | 258° |
| 2026-04-18 09:54 | 39.12669 | 117.36697 | 18 ft | 15 kts | 245° |
| 2026-04-18 09:54 | 39.12621 | 117.36563 | 18 ft | 16 kts | 245° |
| 2026-04-18 09:54 | 39.12568 | 117.36420 | 18 ft | 17 kts | 245° |
| 2026-04-18 09:54 | 39.12513 | 117.36270 | 18 ft | 18 kts | 243° |
| 2026-04-18 09:55 | 39.12454 | 117.36114 | 18 ft | 19 kts | 246° |
| 2026-04-18 09:55 | 39.12399 | 117.35951 | 16 ft | 20 kts | 246° |
| 2026-04-18 09:55 | 39.12331 | 117.35789 | 15 ft | 20 kts | 237° |
| 2026-04-18 09:55 | 39.12349 | 117.35649 | 15 ft | 17 kts | 338° |
| 2026-04-18 09:56 | 39.12450 | 117.35640 | 15 ft | 8 kts | 50° |
| 2026-04-18 09:56 | 39.12470 | 117.35706 | 15 ft | 0 kts | 75° |